sensor_id;sensor_type;location;lat;lon;timestamp;pressure;altitude;pressure_sealevel;temperature;humidity
48527;BME280;34317;51.660;5.824;2023-01-31T00:02:16;102392.38;;;6.76;57.10
48527;BME280;34317;51.660;5.824;2023-01-31T00:04:43;102397.66;;;6.76;57.46
48527;BME280;34317;51.660;5.824;2023-01-31T00:07:10;102396.78;;;6.74;57.02
48527;BME280;34317;51.660;5.824;2023-01-31T00:09:37;102402.91;;;6.73;57.49
48527;BME280;34317;51.660;5.824;2023-01-31T00:12:05;102404.69;;;6.71;57.39
48527;BME280;34317;51.660;5.824;2023-01-31T00:14:32;102402.03;;;6.71;57.27
48527;BME280;34317;51.660;5.824;2023-01-31T00:16:59;102401.19;;;6.69;57.23
48527;BME280;34317;51.660;5.824;2023-01-31T00:19:26;102397.69;;;6.67;57.06
48527;BME280;34317;51.660;5.824;2023-01-31T00:21:54;102404.72;;;6.65;57.46
48527;BME280;34317;51.660;5.824;2023-01-31T00:24:21;102409.97;;;6.62;57.57
48527;BME280;34317;51.660;5.824;2023-01-31T00:26:48;102409.09;;;6.61;57.55
48527;BME280;34317;51.660;5.824;2023-01-31T00:29:25;102411.72;;;6.60;57.68
48527;BME280;34317;51.660;5.824;2023-01-31T00:31:52;102424.91;;;6.58;57.09
48527;BME280;34317;51.660;5.824;2023-01-31T00:34:19;102415.25;;;6.56;57.67
48527;BME280;34317;51.660;5.824;2023-01-31T00:36:46;102408.22;;;6.55;57.31
48527;BME280;34317;51.660;5.824;2023-01-31T00:39:13;102410.00;;;6.53;57.32
48527;BME280;34317;51.660;5.824;2023-01-31T00:41:44;102406.50;;;6.51;57.38
48527;BME280;34317;51.660;5.824;2023-01-31T00:44:12;102408.25;;;6.49;57.54
48527;BME280;34317;51.660;5.824;2023-01-31T00:46:39;102400.38;;;6.47;57.35
48527;BME280;34317;51.660;5.824;2023-01-31T00:49:06;102394.22;;;6.47;57.44
48527;BME280;34317;51.660;5.824;2023-01-31T00:51:33;102385.47;;;6.43;57.69
48527;BME280;34317;51.660;5.824;2023-01-31T00:54:01;102389.00;;;6.40;57.61
48527;BME280;34317;51.660;5.824;2023-01-31T00:56:28;102394.25;;;6.37;57.38
48527;BME280;34317;51.660;5.824;2023-01-31T00:58:56;102381.09;;;6.34;57.25
48527;BME280;34317;51.660;5.824;2023-01-31T01:01:25;102388.13;;;6.31;57.76
48527;BME280;34317;51.660;5.824;2023-01-31T01:03:54;102390.78;;;6.29;57.53
48527;BME280;34317;51.660;5.824;2023-01-31T01:06:23;102394.28;;;6.25;57.76
48527;BME280;34317;51.660;5.824;2023-01-31T01:08:51;102391.66;;;6.23;57.90
48527;BME280;34317;51.660;5.824;2023-01-31T01:11:21;102383.78;;;6.22;57.70
48527;BME280;34317;51.660;5.824;2023-01-31T01:13:49;102385.53;;;6.20;57.61
48527;BME280;34317;51.660;5.824;2023-01-31T01:16:20;102383.75;;;6.19;57.71
48527;BME280;34317;51.660;5.824;2023-01-31T01:18:48;102384.66;;;6.16;57.95
48527;BME280;34317;51.660;5.824;2023-01-31T01:21:18;102376.75;;;6.16;57.80
48527;BME280;34317;51.660;5.824;2023-01-31T01:23:46;102384.66;;;6.16;57.98
48527;BME280;34317;51.660;5.824;2023-01-31T01:26:19;102369.72;;;6.14;58.27
48527;BME280;34317;51.660;5.824;2023-01-31T01:28:48;102372.38;;;6.14;58.22
48527;BME280;34317;51.660;5.824;2023-01-31T01:31:17;102372.38;;;6.15;58.16
48527;BME280;34317;51.660;5.824;2023-01-31T01:33:45;102360.97;;;6.15;57.92
48527;BME280;34317;51.660;5.824;2023-01-31T01:36:14;102366.25;;;6.15;57.92
48527;BME280;34317;51.660;5.824;2023-01-31T01:38:44;102360.97;;;6.15;58.48
48527;BME280;34317;51.660;5.824;2023-01-31T01:41:12;102355.72;;;6.15;58.41
48527;BME280;34317;51.660;5.824;2023-01-31T01:46:24;102355.72;;;6.18;57.90
48527;BME280;34317;51.660;5.824;2023-01-31T01:49:02;102355.72;;;6.18;57.99
48527;BME280;34317;51.660;5.824;2023-01-31T01:51:31;102358.31;;;6.19;58.43
48527;BME280;34317;51.660;5.824;2023-01-31T01:54:04;102357.47;;;6.22;58.48
48527;BME280;34317;51.660;5.824;2023-01-31T01:56:38;102357.47;;;6.22;58.26
48527;BME280;34317;51.660;5.824;2023-01-31T01:59:12;102362.69;;;6.25;58.35
48527;BME280;34317;51.660;5.824;2023-01-31T02:01:41;102364.47;;;6.26;58.25
48527;BME280;34317;51.660;5.824;2023-01-31T02:04:14;102369.72;;;6.29;58.49
48527;BME280;34317;51.660;5.824;2023-01-31T02:06:44;102360.94;;;6.32;58.34
48527;BME280;34317;51.660;5.824;2023-01-31T02:09:19;102359.16;;;6.32;58.61
48527;BME280;34317;51.660;5.824;2023-01-31T02:11:48;102362.66;;;6.34;58.20
48527;BME280;34317;51.660;5.824;2023-01-31T02:14:19;102359.19;;;6.35;58.35
48527;BME280;34317;51.660;5.824;2023-01-31T02:16:47;102370.56;;;6.36;58.45
48527;BME280;34317;51.660;5.824;2023-01-31T02:19:27;102373.19;;;6.37;58.51
48527;BME280;34317;51.660;5.824;2023-01-31T02:28:10;102380.19;;;6.41;58.61
48527;BME280;34317;51.660;5.824;2023-01-31T02:33:52;102384.56;;;6.47;58.47
48527;BME280;34317;51.660;5.824;2023-01-31T02:36:58;102383.72;;;6.47;58.45
48527;BME280;34317;51.660;5.824;2023-01-31T02:47:30;102373.16;;;6.53;58.27
48527;BME280;34317;51.660;5.824;2023-01-31T02:50:08;102366.16;;;6.52;58.68
48527;BME280;34317;51.660;5.824;2023-01-31T02:55:29;102357.34;;;6.51;58.78
48527;BME280;34317;51.660;5.824;2023-01-31T02:58:18;102357.34;;;6.53;58.44
48527;BME280;34317;51.660;5.824;2023-01-31T03:00:48;102355.59;;;6.55;58.88
48527;BME280;34317;51.660;5.824;2023-01-31T03:03:19;102346.81;;;6.56;58.92
48527;BME280;34317;51.660;5.824;2023-01-31T03:08:53;102352.06;;;6.62;58.98
48527;BME280;34317;51.660;5.824;2023-01-31T03:11:49;102344.16;;;6.65;58.88
48527;BME280;34317;51.660;5.824;2023-01-31T03:14:23;102338.84;;;6.70;58.70
48527;BME280;34317;51.660;5.824;2023-01-31T03:17:25;102336.22;;;6.74;59.05
48527;BME280;34317;51.660;5.824;2023-01-31T03:22:50;102335.28;;;6.81;59.03
48527;BME280;34317;51.660;5.824;2023-01-31T03:25:22;102334.41;;;6.86;58.74
48527;BME280;34317;51.660;5.824;2023-01-31T03:27:58;102333.50;;;6.88;58.91
48527;BME280;34317;51.660;5.824;2023-01-31T03:30:35;102334.34;;;6.92;58.88
48527;BME280;34317;51.660;5.824;2023-01-31T03:33:09;102329.06;;;6.95;59.04
48527;BME280;34317;51.660;5.824;2023-01-31T03:35:40;102331.69;;;6.98;58.75
48527;BME280;34317;51.660;5.824;2023-01-31T03:38:21;102327.28;;;7.00;59.04
48527;BME280;34317;51.660;5.824;2023-01-31T03:41:13;102318.47;;;7.04;59.13
48527;BME280;34317;51.660;5.824;2023-01-31T03:43:54;102312.28;;;7.08;59.12
48527;BME280;34317;51.660;5.824;2023-01-31T03:46:30;102311.41;;;7.12;59.02
48527;BME280;34317;51.660;5.824;2023-01-31T03:49:03;102304.38;;;7.14;58.99
48527;BME280;34317;51.660;5.824;2023-01-31T03:51:45;102303.44;;;7.17;59.23
48527;BME280;34317;51.660;5.824;2023-01-31T03:54:23;102306.94;;;7.19;59.24
48527;BME280;34317;51.660;5.824;2023-01-31T03:56:58;102305.16;;;7.21;59.18
48527;BME280;34317;51.660;5.824;2023-01-31T03:59:32;102296.34;;;7.25;59.50
48527;BME280;34317;51.660;5.824;2023-01-31T04:02:02;102298.97;;;7.27;59.48
48527;BME280;34317;51.660;5.824;2023-01-31T04:07:00;102300.69;;;7.34;59.17
48527;BME280;34317;51.660;5.824;2023-01-31T04:09:29;102297.13;;;7.36;59.59
48527;BME280;34317;51.660;5.824;2023-01-31T04:11:59;102302.41;;;7.38;59.46
48527;BME280;34317;51.660;5.824;2023-01-31T04:14:27;102295.34;;;7.40;59.37
48527;BME280;34317;51.660;5.824;2023-01-31T04:16:55;102305.91;;;7.40;59.52
48527;BME280;34317;51.660;5.824;2023-01-31T04:19:22;102295.34;;;7.43;59.42
48527;BME280;34317;51.660;5.824;2023-01-31T04:21:49;102293.56;;;7.45;59.59
48527;BME280;34317;51.660;5.824;2023-01-31T04:24:16;102288.28;;;7.48;59.30
48527;BME280;34317;51.660;5.824;2023-01-31T04:26:43;102290.00;;;7.49;59.46
48527;BME280;34317;51.660;5.824;2023-01-31T04:29:10;102286.50;;;7.50;59.32
48527;BME280;34317;51.660;5.824;2023-01-31T04:31:37;102283.84;;;7.52;59.42
48527;BME280;34317;51.660;5.824;2023-01-31T04:34:06;102279.44;;;7.52;59.27
48527;BME280;34317;51.660;5.824;2023-01-31T04:36:34;102279.44;;;7.52;59.22
48527;BME280;34317;51.660;5.824;2023-01-31T04:39:01;102270.63;;;7.53;59.55
48527;BME280;34317;51.660;5.824;2023-01-31T04:41:28;102272.41;;;7.54;59.47
48527;BME280;34317;51.660;5.824;2023-01-31T04:43:55;102280.28;;;7.56;59.19
48527;BME280;34317;51.660;5.824;2023-01-31T04:46:22;102281.16;;;7.56;59.52
48527;BME280;34317;51.660;5.824;2023-01-31T04:48:49;102272.38;;;7.57;59.38
48527;BME280;34317;51.660;5.824;2023-01-31T04:51:16;102272.38;;;7.57;59.74
48527;BME280;34317;51.660;5.824;2023-01-31T04:53:43;102269.75;;;7.57;59.72
48527;BME280;34317;51.660;5.824;2023-01-31T04:56:11;102268.84;;;7.58;59.53
48527;BME280;34317;51.660;5.824;2023-01-31T04:58:38;102267.09;;;7.57;59.75
48527;BME280;34317;51.660;5.824;2023-01-31T05:01:07;102257.41;;;7.59;59.34
48527;BME280;34317;51.660;5.824;2023-01-31T05:03:34;102259.16;;;7.59;59.69
48527;BME280;34317;51.660;5.824;2023-01-31T05:06:02;102258.28;;;7.58;59.59
48527;BME280;34317;51.660;5.824;2023-01-31T05:08:29;102256.56;;;7.57;59.43
48527;BME280;34317;51.660;5.824;2023-01-31T05:10:58;102252.16;;;7.56;59.38
48527;BME280;34317;51.660;5.824;2023-01-31T05:13:28;102253.06;;;7.55;59.55
48527;BME280;34317;51.660;5.824;2023-01-31T05:15:58;102255.72;;;7.54;59.26
48527;BME280;34317;51.660;5.824;2023-01-31T05:18:26;102253.09;;;7.52;59.38
48527;BME280;34317;51.660;5.824;2023-01-31T05:20:53;102244.31;;;7.50;59.54
48527;BME280;34317;51.660;5.824;2023-01-31T05:23:20;102248.72;;;7.50;59.43
48527;BME280;34317;51.660;5.824;2023-01-31T05:25:48;102239.06;;;7.47;59.63
48527;BME280;34317;51.660;5.824;2023-01-31T05:28:16;102247.88;;;7.46;59.52
48527;BME280;34317;51.660;5.824;2023-01-31T05:30:44;102237.34;;;7.46;59.64
48527;BME280;34317;51.660;5.824;2023-01-31T05:33:11;102233.84;;;7.44;59.79
48527;BME280;34317;51.660;5.824;2023-01-31T05:35:39;102235.56;;;7.45;59.73
48527;BME280;34317;51.660;5.824;2023-01-31T05:38:08;102239.06;;;7.47;59.87
48527;BME280;34317;51.660;5.824;2023-01-31T05:40:36;102232.06;;;7.46;59.70
48527;BME280;34317;51.660;5.824;2023-01-31T05:43:03;102232.94;;;7.47;59.77
48527;BME280;34317;51.660;5.824;2023-01-31T05:45:30;102225.00;;;7.48;59.77
48527;BME280;34317;51.660;5.824;2023-01-31T05:47:58;102219.75;;;7.48;59.70
48527;BME280;34317;51.660;5.824;2023-01-31T05:50:25;102215.31;;;7.50;59.69
48527;BME280;34317;51.660;5.824;2023-01-31T05:52:55;102219.69;;;7.51;59.79
48527;BME280;34317;51.660;5.824;2023-01-31T05:55:22;102203.88;;;7.51;59.83
48527;BME280;34317;51.660;5.824;2023-01-31T05:57:50;102211.75;;;7.54;60.03
48527;BME280;34317;51.660;5.824;2023-01-31T06:00:18;102214.41;;;7.54;59.57
48527;BME280;34317;51.660;5.824;2023-01-31T06:02:46;102212.63;;;7.56;59.83
48527;BME280;34317;51.660;5.824;2023-01-31T06:05:14;102215.25;;;7.58;59.68
48527;BME280;34317;51.660;5.824;2023-01-31T06:07:42;102207.31;;;7.59;59.75
48527;BME280;34317;51.660;5.824;2023-01-31T06:10:10;102209.06;;;7.60;59.89
48527;BME280;34317;51.660;5.824;2023-01-31T06:12:37;102204.63;;;7.63;59.69
48527;BME280;34317;51.660;5.824;2023-01-31T06:15:05;102221.31;;;7.65;59.76
48527;BME280;34317;51.660;5.824;2023-01-31T06:17:32;102219.56;;;7.67;59.75
48527;BME280;34317;51.660;5.824;2023-01-31T06:20:00;102217.78;;;7.69;59.50
48527;BME280;34317;51.660;5.824;2023-01-31T06:22:27;102216.00;;;7.71;59.88
48527;BME280;34317;51.660;5.824;2023-01-31T06:24:54;102218.63;;;7.72;59.55
48527;BME280;34317;51.660;5.824;2023-01-31T06:27:21;102223.84;;;7.74;59.81
48527;BME280;34317;51.660;5.824;2023-01-31T06:29:48;102227.34;;;7.76;59.91
48527;BME280;34317;51.660;5.824;2023-01-31T06:32:15;102218.53;;;7.78;59.77
48527;BME280;34317;51.660;5.824;2023-01-31T06:34:42;102219.41;;;7.79;59.87
48527;BME280;34317;51.660;5.824;2023-01-31T06:37:09;102218.53;;;7.80;59.65
48527;BME280;34317;51.660;5.824;2023-01-31T06:39:36;102207.06;;;7.81;59.37
48527;BME280;34317;51.660;5.824;2023-01-31T06:42:04;102219.38;;;7.82;59.50
48527;BME280;34317;51.660;5.824;2023-01-31T06:44:31;102203.56;;;7.82;59.36
48527;BME280;34317;51.660;5.824;2023-01-31T06:47:00;102200.00;;;7.83;59.22
48527;BME280;34317;51.660;5.824;2023-01-31T06:49:27;102200.00;;;7.83;59.36
48527;BME280;34317;51.660;5.824;2023-01-31T06:51:54;102184.19;;;7.83;59.56
48527;BME280;34317;51.660;5.824;2023-01-31T06:54:22;102177.13;;;7.85;59.23
48527;BME280;34317;51.660;5.824;2023-01-31T06:56:49;102168.34;;;7.86;59.58
48527;BME280;34317;51.660;5.824;2023-01-31T06:59:16;102194.72;;;7.86;59.23
48527;BME280;34317;51.660;5.824;2023-01-31T07:01:43;102192.94;;;7.87;59.57
48527;BME280;34317;51.660;5.824;2023-01-31T07:04:11;102192.94;;;7.85;59.25
48527;BME280;34317;51.660;5.824;2023-01-31T07:06:38;102199.97;;;7.86;59.27
48527;BME280;34317;51.660;5.824;2023-01-31T07:09:05;102194.72;;;7.86;59.35
48527;BME280;34317;51.660;5.824;2023-01-31T07:11:33;102193.84;;;7.86;59.32
48527;BME280;34317;51.660;5.824;2023-01-31T07:14:00;102182.41;;;7.85;59.56
48527;BME280;34317;51.660;5.824;2023-01-31T07:16:27;102173.59;;;7.86;59.04
48527;BME280;34317;51.660;5.824;2023-01-31T07:18:54;102168.34;;;7.86;59.21
48527;BME280;34317;51.660;5.824;2023-01-31T07:21:22;102157.78;;;7.86;59.33
48527;BME280;34317;51.660;5.824;2023-01-31T07:23:50;102163.06;;;7.86;59.34
48527;BME280;34317;51.660;5.824;2023-01-31T07:26:18;102170.06;;;7.87;59.30
48527;BME280;34317;51.660;5.824;2023-01-31T07:28:45;102159.50;;;7.87;59.14
48527;BME280;34317;51.660;5.824;2023-01-31T07:31:13;102154.22;;;7.87;59.37
48527;BME280;34317;51.660;5.824;2023-01-31T07:33:40;102150.72;;;7.88;59.16
48527;BME280;34317;51.660;5.824;2023-01-31T07:36:11;102150.72;;;7.88;59.04
48527;BME280;34317;51.660;5.824;2023-01-31T07:38:38;102161.28;;;7.88;59.46
48527;BME280;34317;51.660;5.824;2023-01-31T07:41:06;102162.13;;;7.89;59.22
48527;BME280;34317;51.660;5.824;2023-01-31T07:43:34;102157.75;;;7.89;59.43
48527;BME280;34317;51.660;5.824;2023-01-31T07:46:05;102159.47;;;7.90;59.20
48527;BME280;34317;51.660;5.824;2023-01-31T07:48:34;102155.97;;;7.91;59.60
48527;BME280;34317;51.660;5.824;2023-01-31T07:51:02;102152.41;;;7.94;59.34
48527;BME280;34317;51.660;5.824;2023-01-31T07:53:31;102152.38;;;7.95;59.52
48527;BME280;34317;51.660;5.824;2023-01-31T07:56:13;102151.47;;;7.98;59.51
48527;BME280;34317;51.660;5.824;2023-01-31T07:58:42;102147.06;;;7.98;59.68
48527;BME280;34317;51.660;5.824;2023-01-31T08:01:24;102145.31;;;8.01;59.50
48527;BME280;34317;51.660;5.824;2023-01-31T08:04:13;102134.69;;;8.04;59.54
48527;BME280;34317;51.660;5.824;2023-01-31T08:06:49;102132.91;;;8.06;59.45
48527;BME280;34317;51.660;5.824;2023-01-31T08:09:18;102139.88;;;8.10;59.58
48527;BME280;34317;51.660;5.824;2023-01-31T08:11:46;102127.56;;;8.12;59.27
48527;BME280;34317;51.660;5.824;2023-01-31T08:14:13;102132.78;;;8.15;59.54
48527;BME280;34317;51.660;5.824;2023-01-31T08:16:40;102130.97;;;8.17;59.52
48527;BME280;34317;51.660;5.824;2023-01-31T08:19:07;102129.16;;;8.21;59.32
48527;BME280;34317;51.660;5.824;2023-01-31T08:21:34;102143.19;;;8.24;59.37
48527;BME280;34317;51.660;5.824;2023-01-31T08:24:01;102123.84;;;8.25;59.43
48527;BME280;34317;51.660;5.824;2023-01-31T08:26:28;102118.50;;;8.28;59.30
48527;BME280;34317;51.660;5.824;2023-01-31T08:28:56;102109.63;;;8.32;59.33
48527;BME280;34317;51.660;5.824;2023-01-31T08:31:25;102114.88;;;8.35;59.55
48527;BME280;34317;51.660;5.824;2023-01-31T08:33:53;102111.28;;;8.39;59.27
48527;BME280;34317;51.660;5.824;2023-01-31T08:36:22;102104.25;;;8.42;59.19
48527;BME280;34317;51.660;5.824;2023-01-31T08:38:50;102107.69;;;8.47;59.32
48527;BME280;34317;51.660;5.824;2023-01-31T08:41:19;102112.94;;;8.50;59.37
48527;BME280;34317;51.660;5.824;2023-01-31T08:43:46;102112.00;;;8.54;59.30
48527;BME280;34317;51.660;5.824;2023-01-31T08:46:26;102105.75;;;8.58;59.37
48527;BME280;34317;51.660;5.824;2023-01-31T08:48:54;102111.00;;;8.61;59.30
48527;BME280;34317;51.660;5.824;2023-01-31T08:51:21;102093.28;;;8.66;59.29
48527;BME280;34317;51.660;5.824;2023-01-31T08:53:50;102091.50;;;8.68;59.27
48527;BME280;34317;51.660;5.824;2023-01-31T08:56:17;102098.47;;;8.72;58.97
48527;BME280;34317;51.660;5.824;2023-01-31T08:58:47;102075.47;;;8.77;59.07
48527;BME280;34317;51.660;5.824;2023-01-31T09:01:16;102081.59;;;8.81;59.20
48527;BME280;34317;51.660;5.824;2023-01-31T09:03:44;102071.84;;;8.85;59.15
48527;BME280;34317;51.660;5.824;2023-01-31T09:06:15;102068.22;;;8.89;59.18
48527;BME280;34317;51.660;5.824;2023-01-31T09:08:43;102064.66;;;8.93;59.28
48527;BME280;34317;51.660;5.824;2023-01-31T09:11:11;102073.34;;;8.98;59.13
48527;BME280;34317;51.660;5.824;2023-01-31T09:13:47;102071.50;;;9.03;59.19
48527;BME280;34317;51.660;5.824;2023-01-31T09:16:18;102072.28;;;9.08;59.10
48527;BME280;34317;51.660;5.824;2023-01-31T09:18:45;102073.06;;;9.13;59.18
48527;BME280;34317;51.660;5.824;2023-01-31T09:21:16;102070.31;;;9.20;59.00
48527;BME280;34317;51.660;5.824;2023-01-31T09:23:44;102058.78;;;9.24;58.89
48527;BME280;34317;51.660;5.824;2023-01-31T09:26:12;102060.44;;;9.28;58.95
48527;BME280;34317;51.660;5.824;2023-01-31T09:28:40;102054.19;;;9.32;59.05
48527;BME280;34317;51.660;5.824;2023-01-31T09:31:11;102056.78;;;9.35;58.84
48527;BME280;34317;51.660;5.824;2023-01-31T09:33:39;102051.38;;;9.41;58.99
48527;BME280;34317;51.660;5.824;2023-01-31T09:36:09;102054.78;;;9.46;58.84
48527;BME280;34317;51.660;5.824;2023-01-31T09:38:37;102061.75;;;9.50;58.65
48527;BME280;34317;51.660;5.824;2023-01-31T09:43:52;102052.75;;;9.59;58.81
48527;BME280;34317;51.660;5.824;2023-01-31T09:46:25;102039.44;;;9.62;58.43
48527;BME280;34317;51.660;5.824;2023-01-31T09:48:55;102049.03;;;9.68;58.64
48527;BME280;34317;51.660;5.824;2023-01-31T09:51:23;102048.97;;;9.71;58.51
48527;BME280;34317;51.660;5.824;2023-01-31T09:53:50;102045.34;;;9.75;58.30
48527;BME280;34317;51.660;5.824;2023-01-31T09:56:23;102050.59;;;9.78;58.24
48527;BME280;34317;51.660;5.824;2023-01-31T09:59:09;102045.19;;;9.81;58.61
48527;BME280;34317;51.660;5.824;2023-01-31T10:01:58;102045.97;;;9.86;58.52
48527;BME280;34317;51.660;5.824;2023-01-31T10:04:55;102037.97;;;9.89;58.30
48527;BME280;34317;51.660;5.824;2023-01-31T10:07:31;102034.38;;;9.92;58.22
48527;BME280;34317;51.660;5.824;2023-01-31T10:12:43;102026.28;;;9.98;58.26
48527;BME280;34317;51.660;5.824;2023-01-31T10:15:20;102042.91;;;10.05;58.28
48527;BME280;34317;51.660;5.824;2023-01-31T10:17:56;102037.56;;;10.08;58.22
48527;BME280;34317;51.660;5.824;2023-01-31T10:20:48;102042.75;;;10.11;58.23
48527;BME280;34317;51.660;5.824;2023-01-31T10:23:33;102040.94;;;10.13;58.38
48527;BME280;34317;51.660;5.824;2023-01-31T10:26:05;102040.00;;;10.17;58.20
48527;BME280;34317;51.660;5.824;2023-01-31T10:28:54;102033.78;;;10.18;58.11
48527;BME280;34317;51.660;5.824;2023-01-31T10:31:29;102042.53;;;10.20;58.20
48527;BME280;34317;51.660;5.824;2023-01-31T10:34:25;102037.25;;;10.20;57.95
48527;BME280;34317;51.660;5.824;2023-01-31T10:39:41;102044.28;;;10.21;58.05
48527;BME280;34317;51.660;5.824;2023-01-31T10:42:34;102043.41;;;10.21;58.33
48527;BME280;34317;51.660;5.824;2023-01-31T10:47:38;102031.88;;;10.23;58.13
48527;BME280;34317;51.660;5.824;2023-01-31T10:50:15;102030.00;;;10.28;58.07
48527;BME280;34317;51.660;5.824;2023-01-31T10:57:52;102012.19;;;10.35;58.15
48527;BME280;34317;51.660;5.824;2023-01-31T11:00:22;102017.47;;;10.37;57.98
48527;BME280;34317;51.660;5.824;2023-01-31T11:02:52;102017.41;;;10.40;58.35
48527;BME280;34317;51.660;5.824;2023-01-31T11:05:21;102017.31;;;10.43;58.30
48527;BME280;34317;51.660;5.824;2023-01-31T11:07:49;102015.41;;;10.48;58.08
48527;BME280;34317;51.660;5.824;2023-01-31T11:10:23;102008.22;;;10.53;58.33
48527;BME280;34317;51.660;5.824;2023-01-31T11:15:24;101999.19;;;10.60;58.06
48527;BME280;34317;51.660;5.824;2023-01-31T11:17:52;101993.81;;;10.63;58.32
48527;BME280;34317;51.660;5.824;2023-01-31T11:20:24;101989.31;;;10.67;58.36
48527;BME280;34317;51.660;5.824;2023-01-31T11:22:53;101988.34;;;10.69;58.23
48527;BME280;34317;51.660;5.824;2023-01-31T11:25:22;101984.69;;;10.74;58.19
48527;BME280;34317;51.660;5.824;2023-01-31T11:28:02;101977.59;;;10.76;58.30
48527;BME280;34317;51.660;5.824;2023-01-31T11:30:35;101982.78;;;10.79;58.39
48527;BME280;34317;51.660;5.824;2023-01-31T11:33:04;101984.53;;;10.80;58.06
48527;BME280;34317;51.660;5.824;2023-01-31T11:35:33;101986.25;;;10.81;58.11
48527;BME280;34317;51.660;5.824;2023-01-31T11:38:18;101988.03;;;10.82;58.17
48527;BME280;34317;51.660;5.824;2023-01-31T11:40:48;101984.44;;;10.83;58.17
48527;BME280;34317;51.660;5.824;2023-01-31T11:45:45;101988.81;;;10.85;58.21
48527;BME280;34317;51.660;5.824;2023-01-31T11:48:22;101977.25;;;10.88;58.07
48527;BME280;34317;51.660;5.824;2023-01-31T11:50:53;101979.00;;;10.89;57.88
48527;BME280;34317;51.660;5.824;2023-01-31T11:53:35;101990.50;;;10.88;58.14
48527;BME280;34317;51.660;5.824;2023-01-31T11:56:19;101975.41;;;10.90;58.21
48527;BME280;34317;51.660;5.824;2023-01-31T11:58:51;101966.56;;;10.91;58.09
48527;BME280;34317;51.660;5.824;2023-01-31T12:01:22;101962.97;;;10.92;57.95
48527;BME280;34317;51.660;5.824;2023-01-31T12:03:58;101963.88;;;10.93;58.09
48527;BME280;34317;51.660;5.824;2023-01-31T12:09:00;101971.75;;;10.94;57.85
48527;BME280;34317;51.660;5.824;2023-01-31T12:11:33;101971.75;;;10.94;57.92
48527;BME280;34317;51.660;5.824;2023-01-31T12:16:34;101964.75;;;10.93;57.76
48527;BME280;34317;51.660;5.824;2023-01-31T12:26:58;101959.63;;;10.87;58.29
48527;BME280;34317;51.660;5.824;2023-01-31T12:38:10;101949.16;;;10.81;58.18
48527;BME280;34317;51.660;5.824;2023-01-31T12:44:15;101951.19;;;10.73;58.55
48527;BME280;34317;51.660;5.824;2023-01-31T12:50:10;101961.94;;;10.66;58.92
48527;BME280;34317;51.660;5.824;2023-01-31T12:55:49;101942.72;;;10.58;58.74
48527;BME280;34317;51.660;5.824;2023-01-31T12:58:36;101946.38;;;10.54;59.13
48527;BME280;34317;51.660;5.824;2023-01-31T13:01:10;101953.50;;;10.52;59.27
48527;BME280;34317;51.660;5.824;2023-01-31T13:04:02;101947.38;;;10.50;59.45
48527;BME280;34317;51.660;5.824;2023-01-31T13:06:43;101936.84;;;10.47;59.64
48527;BME280;34317;51.660;5.824;2023-01-31T13:09:20;101946.56;;;10.48;59.93
48527;BME280;34317;51.660;5.824;2023-01-31T13:12:12;101930.72;;;10.45;59.95
48527;BME280;34317;51.660;5.824;2023-01-31T13:14:43;101948.38;;;10.46;59.89
48527;BME280;34317;51.660;5.824;2023-01-31T13:17:17;101941.25;;;10.48;60.08
48527;BME280;34317;51.660;5.824;2023-01-31T13:19:55;101935.97;;;10.48;60.24
48527;BME280;34317;51.660;5.824;2023-01-31T13:22:32;101935.97;;;10.48;60.21
48527;BME280;34317;51.660;5.824;2023-01-31T13:25:15;101946.56;;;10.48;60.40
48527;BME280;34317;51.660;5.824;2023-01-31T13:27:59;101946.56;;;10.48;60.68
48527;BME280;34317;51.660;5.824;2023-01-31T13:31:02;101951.84;;;10.48;60.58
48527;BME280;34317;51.660;5.824;2023-01-31T13:33:36;101935.09;;;10.47;60.67
48527;BME280;34317;51.660;5.824;2023-01-31T13:38:40;101929.78;;;10.47;60.80
48527;BME280;34317;51.660;5.824;2023-01-31T13:41:16;101934.13;;;10.50;60.91
48527;BME280;34317;51.660;5.824;2023-01-31T13:43:45;101930.59;;;10.51;61.03
48527;BME280;34317;51.660;5.824;2023-01-31T13:46:12;101928.75;;;10.53;61.06
48527;BME280;34317;51.660;5.824;2023-01-31T13:51:40;101911.81;;;10.59;61.35
48527;BME280;34317;51.660;5.824;2023-01-31T13:54:25;101898.44;;;10.63;61.37
48527;BME280;34317;51.660;5.824;2023-01-31T13:56:58;101921.28;;;10.67;61.36
48527;BME280;34317;51.660;5.824;2023-01-31T13:59:28;101922.06;;;10.71;61.51
48527;BME280;34317;51.660;5.824;2023-01-31T14:01:58;101914.00;;;10.76;61.24
48527;BME280;34317;51.660;5.824;2023-01-31T14:04:32;101912.19;;;10.78;61.23
48527;BME280;34317;51.660;5.824;2023-01-31T14:30:09;101946.63;;;11.07;61.67
48527;BME280;34317;51.660;5.824;2023-01-31T14:38:23;101949.94;;;11.16;61.58
48527;BME280;34317;51.660;5.824;2023-01-31T14:41:08;101956.97;;;11.17;61.56
48527;BME280;34317;51.660;5.824;2023-01-31T14:46:54;101962.16;;;11.21;61.67
48527;BME280;34317;51.660;5.824;2023-01-31T14:55:35;101966.44;;;11.25;61.47
48527;BME280;34317;51.660;5.824;2023-01-31T14:58:13;101972.59;;;11.26;61.54
48527;BME280;34317;51.660;5.824;2023-01-31T15:00:51;101976.97;;;11.28;61.59
48527;BME280;34317;51.660;5.824;2023-01-31T15:03:24;101971.59;;;11.30;61.65
48527;BME280;34317;51.660;5.824;2023-01-31T15:05:54;101976.81;;;11.33;61.62
48527;BME280;34317;51.660;5.824;2023-01-31T15:13:44;101988.06;;;11.41;61.77
48527;BME280;34317;51.660;5.824;2023-01-31T15:16:17;101986.13;;;11.46;61.46
48527;BME280;34317;51.660;5.824;2023-01-31T15:18:48;101988.66;;;11.51;61.48
48527;BME280;34317;51.660;5.824;2023-01-31T15:21:26;101997.41;;;11.55;61.49
48527;BME280;34317;51.660;5.824;2023-01-31T15:23:54;101994.66;;;11.58;61.43
48527;BME280;34317;51.660;5.824;2023-01-31T15:26:24;101987.50;;;11.60;61.32
48527;BME280;34317;51.660;5.824;2023-01-31T15:28:53;101987.47;;;11.61;61.29
48527;BME280;34317;51.660;5.824;2023-01-31T15:31:30;101992.72;;;11.63;61.16
48527;BME280;34317;51.660;5.824;2023-01-31T15:34:04;101982.09;;;11.63;60.97